Vancouver Sea Island Ccg, British Columbia

3:13 AM PST on November 23, 2014 (GMT -0800)
Vancouver | Change Station
CLOSE
Current Station
Airport
Location: Vancouver,
Elevation: 13 ft
Nearby Weather Stations

Elev 13 ft 49.18 °N, 123.17 °W | Updated 13 minutes ago

Light Rain
Light Rain
46 °F
Feels Like 40 °F
N
16
Wind Variable Wind from SE
Gusts 25 mph

Today
High -- | Low -- °F
--% Chance of Precip.
Yesterday
High -- | Low -- °F
Precip. -- in
7:35 AM 4:22 PM
New Moon, 1% visible
Pressure 30.03 in
Visibility 12.0 miles
Clouds Few 2600 ft
Mostly Cloudy 5500 ft
Overcast 7200 ft
Windchill 40 °F
Dew Point 45 °F
Humidity 93%
Rainfall 0.00 in
Snow Depth Not available.
UV 0 out of 12
Pollen Not available.
Air Quality Not available.
Flu Activity Not available.
METAR CYVR 231100Z 14014G22KT 12SM -RA FEW026 BKN055 OVC072 08/07 A3002 RMK CU2SC5AC1 PRESFR SLP167

More Conditions Fewer Conditions

Pressure 30.03 in
Visibility 12.0 miles
Clouds Few 2600 ft
Mostly Cloudy 5500 ft
Overcast 7200 ft
Windchill 40 °F
Dew Point 45 °F
Humidity 93%
Rainfall 0.00 in
Snow Depth Not available.
UV 0 out of 12
Pollen Not available.
Air Quality Not available.
Flu Activity Not available.
METAR CYVR 231100Z 14014G22KT 12SM -RA FEW026 BKN055 OVC072 08/07 A3002 RMK CU2SC5AC1 PRESFR SLP167

More Conditions Fewer Conditions

10-Day Weather Forecast

Almanac

Astronomy

Nov. 23, 2014 Rise Set
Actual Time
Civil Twilight
Nautical Twilight
Astronomical Twilight
Moon
Length of Visible Light
Length of Day
Tomorrow will be .
, % of the Moon is Illuminated

Today's Extremes

Country Highs Country Lows

Community

WunderPhotos

Upload Photos

1,773,036 photos uploaded!

WunderBlogs® & News

Nearby

Air Quality

  Air Quality AQ Index Pollutant
Not available.

Snow Depth

Station Depth Elevation

Earthquake Activity

City Distance Mag. Time & Date
Minimum magnitude displayed is 2.5.

Coastal Water Temperatures

Place Temperature

Nearby Weather Stations